CEH4 weather

De Winton South Calgary Airport
De Winton, Alberta, Canada

Public forecast

Using degrees Celsius for public forecast. Weather courtesy of forecast.io.

METAR (pilot weather report)

Closest report is Calgary International Airport, 19.0 nm (35.3 km) NNW. Retrieved 2019/06/17 20:00 UTC (40 minutes ago):

CYYC 172000Z 16010G17KT 110V190 15SM FEW062CB 24/09 A3001 RMK CB2 LN 5 CB'S S-WNW MVG SE SLP159 DENSITY ALT 5400FT

TAF (pilot weather forecast)

Closest forecast is Calgary International Airport, 19.0 nm (35.3 km) NNW. Retrieved 2019/06/17 21:40 UTC (0 seconds ago):

TAF CYYC 172038Z 1721/1818 16012G22KT P6SM FEW060 FM172200 18012G22KT P6SM SCT070 SCT150 TEMPO 1722/1802 P6SM -SHRA BKN070 PROB40 1722/1802 VRB20G30KT 4SM TSRA BKN060CB FM180200 18010KT P6SM SCT120 BKN220 FM180900 24005KT P6SM BKN120 FM181500 34010KT P6SM VCSH BKN070 BKN120 RMK NXT FCST BY 180000Z